Dara'a, Syria

3:52 PM EEST on August 22, 2014 (GMT +0300)
M.I. Ben-Yaakov | Change Station
CLOSE
Current Station
Airport
Location: Rosh-Pina,
Elevation: 922 ft
Nearby Weather Stations

Elev 922 ft 32.98 °N, 35.57 °E | Updated 2 minutes ago

Clear
Clear
93 °F
Feels Like 95 °F
N
14
Wind Variable Wind from NNW

Today
High -- | Low -- °F
--% Chance of Precip.
Yesterday
High -- | Low -- °F
Precip. -- in
6:03 AM 7:12 PM
Waning Crescent, 8% visible
Pressure 29.80 in
Visibility -9999.0 miles
Clouds
Heat Index 95 °F
Dew Point 64 °F
Humidity 38%
Rainfall 0.00 in
Snow Depth Not available.
UV Not available.
Pollen Not available.
Air Quality Not available.
Flu Activity Not available.
METAR LLIB 221250Z 33012KT CAVOK 34/18 Q1009

More Conditions Fewer Conditions

Pressure 29.80 in
Visibility -9999.0 miles
Clouds
Heat Index 95 °F
Dew Point 64 °F
Humidity 38%
Rainfall 0.00 in
Snow Depth Not available.
UV Not available.
Pollen Not available.
Air Quality Not available.
Flu Activity Not available.
METAR LLIB 221250Z 33012KT CAVOK 34/18 Q1009

More Conditions Fewer Conditions

10-Day Weather Forecast

Almanac

Astronomy

Aug. 22, 2014 Rise Set
Actual Time 6:03 AM EEST 7:12 PM EEST
Civil Twilight 5:38 AM EEST 7:38 PM EEST
Nautical Twilight 5:07 AM EEST 8:08 PM EEST
Astronomical Twilight 4:36 AM EEST 8:40 PM EEST
Moon 3:12 AM EEST 5:04 PM EEST
Length of Visible Light 14h 00m
Length of Day
13h 09m
Tomorrow will be 1m 49s shorter.
Waning Crescent, 8% of the Moon is Illuminated
Today
Waning Crescent
Aug 25
New
Sep 2
First Quarter
Sep 8
Full
Sep 15
Last Quarter

Yesterday's Extremes

Country Highs Country Lows

Community

WunderPhotos

Upload Photos

1,746,158 photos uploaded!

WunderBlogs® & News

Nearby

Snow Depth

Not available.

Earthquake Activity

City Distance Mag. Time & Date
No recent earthquake activity has been reported nearby.
Minimum magnitude displayed is 2.5.

Coastal Water Temperatures

Place Temperature
No Stations Reporting

Nearby Weather Stations